Lee-on-the-Solent, United Kingdom
Current Conditions -  °F | °C
As of 8:50 AM on Friday 28 Nov 2014 (Local Time) from EGHI Reporting Station
Broken Clouds Broken Clouds  
Wind Chill: 10°   Ceiling: 1700
Heat Index: 10°   Visibility: 6mi
Dew Point:   Wind: 7mph
Humidity: 87%   Direction: 70°ENE
Pressure: 29.56"   Gusts: NA
Location:  50.8°N, 1.2°W
Report Text: EGHI 280850Z 07006KT 010V130 9999 SCT013 BKN017 10/08 Q1001
Loading
Personal Weather Stations






























Interactive Weather Map New forecast layout! Learn more

10-Day Weather Forecast

Advertisements
Track Severe Weather on mobile